Grand Marais, MN

7:12 AM CDT on September 01, 2015 (GMT -0500)
SundewTech | | Change Station
CLOSE
Current Station
Personal Weather Station
Location: Grand Marais, MN
Elevation: 676 ft
Nearby Weather Stations

Elev 676 ft 47.75 °N, 90.34 °W | Updated 39 seconds ago

Fog
Fog
63.0 °F
Feels Like 63.0 °F
N
0.0
Wind Variable Wind from South
Gusts 0.0 mph

Today
High -- | Low -- °F
--% Chance of Precip.
Yesterday
High -- | Low -- °F
Precip. -- in
6:19 AM 7:42 PM
Waning Gibbous, 89% visible
Pressure 29.93 in
Visibility 0.8 miles
Clouds Overcast 3900 ft
Dew Point 61 °F
Humidity 93%
Rainfall 0.00 in
Snow Depth Not available.
UV 0 out of 12
Pollen 9.10 out of 12
Air Quality Not available.
Flu Activity Not available.
METAR KCKC 011153Z AUTO 00000KT 3/4SM BR OVC039 18/17 A2993 RMK AO2
Pressure 29.93 in
Visibility 0.8 miles
Clouds Overcast 3900 ft
Dew Point 61 °F
Humidity 93%
Rainfall 0.00 in
Snow Depth Not available.
UV 0 out of 12
Pollen 9.10 out of 12
Air Quality Not available.
Flu Activity Not available.
METAR KCKC 011153Z AUTO 00000KT 3/4SM BR OVC039 18/17 A2993 RMK AO2

10-Day Weather Forecast

×

Almanac

Astronomy

Sep. 01, 2015 Rise Set
Actual Time
Civil Twilight
Nautical Twilight
Astronomical Twilight
Moon
Length of Visible Light
Length of Day
Tomorrow will be .
, % of the Moon is Illuminated

Today's Extremes

State Highs State Lows

Community

WunderPhotos

Upload Photos

1,851,508 photos uploaded!

WunderBlogs® & News

Nearby

Air Quality

  Air Quality AQ Index Pollutant
Not available.

Snow Depth

Station Depth Elevation

Earthquake Activity

City Distance Mag. Time & Date
Minimum magnitude displayed is 2.5.

Coastal Water Temperatures

Place Temperature

Stations

Nearby Weather Stations

Station Location Temp. Windchill Dew Point Humidity Wind Precip. Elev Updated Type